sensor_id;sensor_type;location;lat;lon;timestamp;P1;durP1;ratioP1;P2;durP2;ratioP2
65420;SDS011;52028;50.658;14.004;2022-10-17T00:02:20;33.63;;;14.27;;
65420;SDS011;52028;50.658;14.004;2022-10-17T00:04:45;38.53;;;16.58;;
65420;SDS011;52028;50.658;14.004;2022-10-17T00:07:10;49.03;;;18.42;;
65420;SDS011;52028;50.658;14.004;2022-10-17T00:09:36;57.22;;;23.05;;
65420;SDS011;52028;50.658;14.004;2022-10-17T00:12:01;47.95;;;19.77;;
65420;SDS011;52028;50.658;14.004;2022-10-17T00:14:27;42.50;;;20.45;;
65420;SDS011;52028;50.658;14.004;2022-10-17T00:16:52;46.00;;;20.02;;
65420;SDS011;52028;50.658;14.004;2022-10-17T00:19:17;57.38;;;21.63;;
65420;SDS011;52028;50.658;14.004;2022-10-17T00:21:42;47.35;;;20.20;;
65420;SDS011;52028;50.658;14.004;2022-10-17T00:24:08;44.83;;;19.50;;
65420;SDS011;52028;50.658;14.004;2022-10-17T00:26:33;38.70;;;18.30;;
65420;SDS011;52028;50.658;14.004;2022-10-17T00:28:58;40.67;;;17.70;;
65420;SDS011;52028;50.658;14.004;2022-10-17T00:31:24;43.20;;;16.92;;
65420;SDS011;52028;50.658;14.004;2022-10-17T00:33:50;37.47;;;16.70;;
65420;SDS011;52028;50.658;14.004;2022-10-17T00:36:17;38.67;;;16.25;;
65420;SDS011;52028;50.658;14.004;2022-10-17T00:38:45;35.08;;;14.45;;
65420;SDS011;52028;50.658;14.004;2022-10-17T00:41:12;38.38;;;14.95;;
65420;SDS011;52028;50.658;14.004;2022-10-17T00:46:35;41.90;;;16.45;;
65420;SDS011;52028;50.658;14.004;2022-10-17T00:49:04;39.33;;;16.27;;
65420;SDS011;52028;50.658;14.004;2022-10-17T00:51:33;52.17;;;19.58;;
65420;SDS011;52028;50.658;14.004;2022-10-17T00:54:30;49.70;;;21.63;;
65420;SDS011;52028;50.658;14.004;2022-10-17T00:56:58;49.67;;;20.52;;
65420;SDS011;52028;50.658;14.004;2022-10-17T00:59:24;43.13;;;20.20;;
65420;SDS011;52028;50.658;14.004;2022-10-17T01:01:55;60.53;;;24.80;;
65420;SDS011;52028;50.658;14.004;2022-10-17T01:04:25;67.85;;;26.90;;
65420;SDS011;52028;50.658;14.004;2022-10-17T01:06:50;66.22;;;26.23;;
65420;SDS011;52028;50.658;14.004;2022-10-17T01:09:16;56.63;;;21.30;;
65420;SDS011;52028;50.658;14.004;2022-10-17T01:11:49;46.28;;;19.15;;
65420;SDS011;52028;50.658;14.004;2022-10-17T01:14:23;39.93;;;16.17;;
65420;SDS011;52028;50.658;14.004;2022-10-17T01:20:05;41.88;;;16.42;;
65420;SDS011;52028;50.658;14.004;2022-10-17T01:22:18;47.90;;;18.30;;
65420;SDS011;52028;50.658;14.004;2022-10-17T01:27:28;51.90;;;17.90;;
65420;SDS011;52028;50.658;14.004;2022-10-17T01:32:55;40.10;;;18.15;;
65420;SDS011;52028;50.658;14.004;2022-10-17T01:38:17;39.85;;;17.85;;
65420;SDS011;52028;50.658;14.004;2022-10-17T01:43:25;36.60;;;15.80;;
65420;SDS011;52028;50.658;14.004;2022-10-17T01:46:03;43.85;;;17.85;;
65420;SDS011;52028;50.658;14.004;2022-10-17T01:48:41;36.65;;;16.30;;
65420;SDS011;52028;50.658;14.004;2022-10-17T01:51:14;42.33;;;16.38;;
65420;SDS011;52028;50.658;14.004;2022-10-17T01:53:49;43.42;;;17.40;;
65420;SDS011;52028;50.658;14.004;2022-10-17T01:56:18;43.10;;;17.05;;
65420;SDS011;52028;50.658;14.004;2022-10-17T01:58:48;39.78;;;16.73;;
65420;SDS011;52028;50.658;14.004;2022-10-17T02:01:16;40.15;;;15.90;;
65420;SDS011;52028;50.658;14.004;2022-10-17T02:03:43;49.45;;;18.13;;
65420;SDS011;52028;50.658;14.004;2022-10-17T02:06:11;60.05;;;18.60;;
65420;SDS011;52028;50.658;14.004;2022-10-17T02:13:42;55.53;;;17.15;;
65420;SDS011;52028;50.658;14.004;2022-10-17T02:18:52;41.53;;;15.52;;
65420;SDS011;52028;50.658;14.004;2022-10-17T02:24:15;56.60;;;17.33;;
65420;SDS011;52028;50.658;14.004;2022-10-17T02:30:07;82.15;;;17.63;;
65420;SDS011;52028;50.658;14.004;2022-10-17T02:35:20;61.38;;;17.25;;
65420;SDS011;52028;50.658;14.004;2022-10-17T02:37:49;65.82;;;17.48;;
65420;SDS011;52028;50.658;14.004;2022-10-17T02:40:16;60.55;;;17.48;;
65420;SDS011;52028;50.658;14.004;2022-10-17T02:42:45;44.22;;;14.88;;
65420;SDS011;52028;50.658;14.004;2022-10-17T02:45:11;41.85;;;14.70;;
65420;SDS011;52028;50.658;14.004;2022-10-17T02:50:12;36.88;;;14.52;;
65420;SDS011;52028;50.658;14.004;2022-10-17T02:52:39;41.38;;;15.65;;
65420;SDS011;52028;50.658;14.004;2022-10-17T02:57:39;28.00;;;13.85;;
65420;SDS011;52028;50.658;14.004;2022-10-17T03:00:08;35.28;;;13.57;;
65420;SDS011;52028;50.658;14.004;2022-10-17T03:02:40;46.13;;;14.98;;
65420;SDS011;52028;50.658;14.004;2022-10-17T03:05:08;35.63;;;14.07;;
65420;SDS011;52028;50.658;14.004;2022-10-17T03:07:34;33.55;;;13.20;;
65420;SDS011;52028;50.658;14.004;2022-10-17T03:10:00;37.50;;;14.57;;
65420;SDS011;52028;50.658;14.004;2022-10-17T03:12:25;40.92;;;14.90;;
65420;SDS011;52028;50.658;14.004;2022-10-17T03:14:50;44.75;;;15.70;;
65420;SDS011;52028;50.658;14.004;2022-10-17T03:17:16;47.65;;;16.85;;
65420;SDS011;52028;50.658;14.004;2022-10-17T03:19:41;50.28;;;19.17;;
65420;SDS011;52028;50.658;14.004;2022-10-17T03:22:06;43.03;;;16.92;;
65420;SDS011;52028;50.658;14.004;2022-10-17T03:24:32;46.42;;;17.73;;
65420;SDS011;52028;50.658;14.004;2022-10-17T03:26:57;52.47;;;18.95;;
65420;SDS011;52028;50.658;14.004;2022-10-17T03:29:22;45.10;;;18.02;;
65420;SDS011;52028;50.658;14.004;2022-10-17T03:31:48;43.78;;;16.95;;
65420;SDS011;52028;50.658;14.004;2022-10-17T03:34:13;44.33;;;16.60;;
65420;SDS011;52028;50.658;14.004;2022-10-17T03:36:40;51.83;;;18.52;;
65420;SDS011;52028;50.658;14.004;2022-10-17T03:39:06;60.55;;;22.45;;
65420;SDS011;52028;50.658;14.004;2022-10-17T03:41:31;49.22;;;18.98;;
65420;SDS011;52028;50.658;14.004;2022-10-17T03:43:57;50.40;;;18.88;;
65420;SDS011;52028;50.658;14.004;2022-10-17T03:46:22;45.25;;;16.67;;
65420;SDS011;52028;50.658;14.004;2022-10-17T03:48:47;46.10;;;16.50;;
65420;SDS011;52028;50.658;14.004;2022-10-17T03:51:18;36.90;;;14.98;;
65420;SDS011;52028;50.658;14.004;2022-10-17T03:53:49;32.72;;;14.10;;
65420;SDS011;52028;50.658;14.004;2022-10-17T03:56:18;35.10;;;15.88;;
65420;SDS011;52028;50.658;14.004;2022-10-17T03:58:48;30.45;;;15.20;;
65420;SDS011;52028;50.658;14.004;2022-10-17T04:01:14;36.60;;;14.68;;
65420;SDS011;52028;50.658;14.004;2022-10-17T04:03:40;34.97;;;14.75;;
65420;SDS011;52028;50.658;14.004;2022-10-17T04:06:06;32.20;;;13.65;;
65420;SDS011;52028;50.658;14.004;2022-10-17T04:08:32;37.25;;;14.00;;
65420;SDS011;52028;50.658;14.004;2022-10-17T04:10:59;35.00;;;14.13;;
65420;SDS011;52028;50.658;14.004;2022-10-17T04:13:26;39.75;;;14.25;;
65420;SDS011;52028;50.658;14.004;2022-10-17T04:15:55;29.70;;;12.82;;
65420;SDS011;52028;50.658;14.004;2022-10-17T04:18:22;33.00;;;13.65;;
65420;SDS011;52028;50.658;14.004;2022-10-17T04:20:48;24.15;;;11.75;;
65420;SDS011;52028;50.658;14.004;2022-10-17T04:23:13;23.80;;;10.93;;
65420;SDS011;52028;50.658;14.004;2022-10-17T04:25:38;25.40;;;11.45;;
65420;SDS011;52028;50.658;14.004;2022-10-17T04:28:04;25.92;;;11.02;;
65420;SDS011;52028;50.658;14.004;2022-10-17T04:30:29;23.45;;;10.75;;
65420;SDS011;52028;50.658;14.004;2022-10-17T04:32:54;22.23;;;11.25;;
65420;SDS011;52028;50.658;14.004;2022-10-17T04:35:20;32.00;;;11.68;;
65420;SDS011;52028;50.658;14.004;2022-10-17T04:37:45;24.85;;;12.13;;
65420;SDS011;52028;50.658;14.004;2022-10-17T04:40:10;22.23;;;11.82;;
65420;SDS011;52028;50.658;14.004;2022-10-17T04:42:36;22.85;;;11.65;;
65420;SDS011;52028;50.658;14.004;2022-10-17T04:45:01;20.48;;;11.02;;
65420;SDS011;52028;50.658;14.004;2022-10-17T04:47:27;24.38;;;11.88;;
65420;SDS011;52028;50.658;14.004;2022-10-17T04:49:52;30.35;;;13.45;;
65420;SDS011;52028;50.658;14.004;2022-10-17T04:52:18;31.35;;;14.63;;
65420;SDS011;52028;50.658;14.004;2022-10-17T04:54:43;28.00;;;14.23;;
65420;SDS011;52028;50.658;14.004;2022-10-17T04:57:08;31.98;;;14.65;;
65420;SDS011;52028;50.658;14.004;2022-10-17T04:59:34;27.35;;;14.27;;
65420;SDS011;52028;50.658;14.004;2022-10-17T05:01:59;29.08;;;14.10;;
65420;SDS011;52028;50.658;14.004;2022-10-17T05:04:24;24.77;;;13.90;;
65420;SDS011;52028;50.658;14.004;2022-10-17T05:06:51;32.75;;;14.43;;
65420;SDS011;52028;50.658;14.004;2022-10-17T05:09:16;28.48;;;13.07;;
65420;SDS011;52028;50.658;14.004;2022-10-17T05:11:42;28.88;;;14.30;;
65420;SDS011;52028;50.658;14.004;2022-10-17T05:14:07;28.98;;;14.02;;
65420;SDS011;52028;50.658;14.004;2022-10-17T05:16:33;31.80;;;14.18;;
65420;SDS011;52028;50.658;14.004;2022-10-17T05:19:00;26.83;;;13.35;;
65420;SDS011;52028;50.658;14.004;2022-10-17T05:21:26;32.33;;;13.88;;
65420;SDS011;52028;50.658;14.004;2022-10-17T05:23:53;31.05;;;14.10;;
65420;SDS011;52028;50.658;14.004;2022-10-17T05:26:18;31.08;;;15.07;;
65420;SDS011;52028;50.658;14.004;2022-10-17T05:28:44;33.20;;;16.90;;
65420;SDS011;52028;50.658;14.004;2022-10-17T05:31:10;32.38;;;17.13;;
65420;SDS011;52028;50.658;14.004;2022-10-17T05:33:35;41.95;;;19.77;;
65420;SDS011;52028;50.658;14.004;2022-10-17T05:36:02;38.92;;;19.88;;
65420;SDS011;52028;50.658;14.004;2022-10-17T05:38:28;43.45;;;18.77;;
65420;SDS011;52028;50.658;14.004;2022-10-17T05:40:58;33.17;;;16.02;;
65420;SDS011;52028;50.658;14.004;2022-10-17T05:43:25;31.98;;;14.52;;
65420;SDS011;52028;50.658;14.004;2022-10-17T05:45:50;36.10;;;16.05;;
65420;SDS011;52028;50.658;14.004;2022-10-17T05:48:16;38.15;;;16.33;;
65420;SDS011;52028;50.658;14.004;2022-10-17T05:50:41;34.08;;;15.40;;
65420;SDS011;52028;50.658;14.004;2022-10-17T05:53:08;33.45;;;16.13;;
65420;SDS011;52028;50.658;14.004;2022-10-17T05:55:34;30.73;;;15.23;;
65420;SDS011;52028;50.658;14.004;2022-10-17T05:58:00;33.90;;;16.60;;
65420;SDS011;52028;50.658;14.004;2022-10-17T06:00:25;37.90;;;17.30;;
65420;SDS011;52028;50.658;14.004;2022-10-17T06:02:51;40.78;;;20.20;;
65420;SDS011;52028;50.658;14.004;2022-10-17T06:05:16;44.05;;;19.63;;
65420;SDS011;52028;50.658;14.004;2022-10-17T06:07:42;38.67;;;19.42;;
65420;SDS011;52028;50.658;14.004;2022-10-17T06:10:07;42.15;;;21.00;;
65420;SDS011;52028;50.658;14.004;2022-10-17T06:12:33;35.85;;;18.63;;
65420;SDS011;52028;50.658;14.004;2022-10-17T06:14:59;38.75;;;18.42;;
65420;SDS011;52028;50.658;14.004;2022-10-17T06:17:24;38.60;;;18.17;;
65420;SDS011;52028;50.658;14.004;2022-10-17T06:19:52;47.30;;;20.38;;
65420;SDS011;52028;50.658;14.004;2022-10-17T06:22:17;50.40;;;21.33;;
65420;SDS011;52028;50.658;14.004;2022-10-17T06:24:46;59.45;;;27.58;;
65420;SDS011;52028;50.658;14.004;2022-10-17T06:27:13;62.80;;;30.58;;
65420;SDS011;52028;50.658;14.004;2022-10-17T06:29:39;70.25;;;32.80;;
65420;SDS011;52028;50.658;14.004;2022-10-17T06:32:05;70.18;;;32.78;;
65420;SDS011;52028;50.658;14.004;2022-10-17T06:34:30;70.28;;;35.55;;
65420;SDS011;52028;50.658;14.004;2022-10-17T06:36:56;82.38;;;37.03;;
65420;SDS011;52028;50.658;14.004;2022-10-17T06:39:21;72.15;;;37.25;;
65420;SDS011;52028;50.658;14.004;2022-10-17T06:41:47;76.30;;;36.70;;
65420;SDS011;52028;50.658;14.004;2022-10-17T06:44:12;64.97;;;32.80;;
65420;SDS011;52028;50.658;14.004;2022-10-17T06:46:39;67.15;;;33.33;;
65420;SDS011;52028;50.658;14.004;2022-10-17T06:49:05;66.72;;;32.30;;
65420;SDS011;52028;50.658;14.004;2022-10-17T06:51:34;68.22;;;32.97;;
65420;SDS011;52028;50.658;14.004;2022-10-17T06:54:00;58.90;;;32.20;;
65420;SDS011;52028;50.658;14.004;2022-10-17T06:56:26;59.72;;;31.48;;
65420;SDS011;52028;50.658;14.004;2022-10-17T06:58:53;59.90;;;31.75;;
65420;SDS011;52028;50.658;14.004;2022-10-17T07:01:18;59.45;;;31.92;;
65420;SDS011;52028;50.658;14.004;2022-10-17T07:06:21;55.53;;;30.77;;
65420;SDS011;52028;50.658;14.004;2022-10-17T07:08:52;62.55;;;31.73;;
65420;SDS011;52028;50.658;14.004;2022-10-17T07:11:20;58.20;;;29.67;;
65420;SDS011;52028;50.658;14.004;2022-10-17T07:13:46;55.97;;;30.90;;
65420;SDS011;52028;50.658;14.004;2022-10-17T07:16:14;59.92;;;30.60;;
65420;SDS011;52028;50.658;14.004;2022-10-17T07:18:40;61.78;;;30.25;;
65420;SDS011;52028;50.658;14.004;2022-10-17T07:21:07;54.60;;;30.35;;
65420;SDS011;52028;50.658;14.004;2022-10-17T07:23:53;83.40;;;31.73;;
65420;SDS011;52028;50.658;14.004;2022-10-17T07:26:19;59.30;;;31.75;;
65420;SDS011;52028;50.658;14.004;2022-10-17T07:28:50;58.30;;;30.38;;
65420;SDS011;52028;50.658;14.004;2022-10-17T07:33:43;53.70;;;29.08;;
65420;SDS011;52028;50.658;14.004;2022-10-17T07:36:09;57.00;;;29.92;;
65420;SDS011;52028;50.658;14.004;2022-10-17T07:38:35;55.70;;;29.77;;
65420;SDS011;52028;50.658;14.004;2022-10-17T07:41:01;55.03;;;30.42;;
65420;SDS011;52028;50.658;14.004;2022-10-17T07:43:28;51.75;;;29.70;;
65420;SDS011;52028;50.658;14.004;2022-10-17T07:45:54;54.70;;;29.88;;
65420;SDS011;52028;50.658;14.004;2022-10-17T07:48:20;51.22;;;28.23;;
65420;SDS011;52028;50.658;14.004;2022-10-17T07:50:47;53.17;;;28.17;;
65420;SDS011;52028;50.658;14.004;2022-10-17T07:53:13;50.72;;;28.55;;
65420;SDS011;52028;50.658;14.004;2022-10-17T07:55:39;54.17;;;28.85;;
65420;SDS011;52028;50.658;14.004;2022-10-17T07:58:05;50.15;;;28.38;;
65420;SDS011;52028;50.658;14.004;2022-10-17T08:00:31;51.67;;;29.13;;
65420;SDS011;52028;50.658;14.004;2022-10-17T08:02:56;53.75;;;28.75;;
65420;SDS011;52028;50.658;14.004;2022-10-17T08:05:21;51.90;;;28.90;;
65420;SDS011;52028;50.658;14.004;2022-10-17T08:07:47;57.95;;;29.73;;
65420;SDS011;52028;50.658;14.004;2022-10-17T08:10:12;52.60;;;28.25;;
65420;SDS011;52028;50.658;14.004;2022-10-17T08:12:38;53.85;;;28.40;;
65420;SDS011;52028;50.658;14.004;2022-10-17T08:15:04;49.42;;;28.98;;
65420;SDS011;52028;50.658;14.004;2022-10-17T08:17:31;55.97;;;29.75;;
65420;SDS011;52028;50.658;14.004;2022-10-17T08:20:01;49.42;;;27.70;;
65420;SDS011;52028;50.658;14.004;2022-10-17T08:22:28;47.42;;;27.98;;
65420;SDS011;52028;50.658;14.004;2022-10-17T08:25:00;55.25;;;28.98;;
65420;SDS011;52028;50.658;14.004;2022-10-17T08:27:25;53.30;;;27.33;;
65420;SDS011;52028;50.658;14.004;2022-10-17T08:29:53;50.45;;;27.75;;
65420;SDS011;52028;50.658;14.004;2022-10-17T08:32:22;46.08;;;26.13;;
65420;SDS011;52028;50.658;14.004;2022-10-17T08:34:49;51.20;;;28.25;;
65420;SDS011;52028;50.658;14.004;2022-10-17T08:37:15;45.85;;;25.80;;
65420;SDS011;52028;50.658;14.004;2022-10-17T08:39:40;50.47;;;27.42;;
65420;SDS011;52028;50.658;14.004;2022-10-17T08:47:18;51.65;;;27.20;;
65420;SDS011;52028;50.658;14.004;2022-10-17T08:49:51;46.33;;;25.83;;
65420;SDS011;52028;50.658;14.004;2022-10-17T08:55:09;47.25;;;25.88;;
65420;SDS011;52028;50.658;14.004;2022-10-17T08:57:40;45.08;;;25.92;;
65420;SDS011;52028;50.658;14.004;2022-10-17T09:00:12;42.83;;;25.10;;
65420;SDS011;52028;50.658;14.004;2022-10-17T09:02:49;47.30;;;26.30;;
65420;SDS011;52028;50.658;14.004;2022-10-17T09:19:59;47.17;;;24.52;;
65420;SDS011;52028;50.658;14.004;2022-10-17T09:22:36;40.20;;;24.50;;
65420;SDS011;52028;50.658;14.004;2022-10-17T09:25:09;40.63;;;23.85;;
65420;SDS011;52028;50.658;14.004;2022-10-17T09:27:39;42.92;;;24.17;;
65420;SDS011;52028;50.658;14.004;2022-10-17T09:32:58;45.55;;;23.90;;
65420;SDS011;52028;50.658;14.004;2022-10-17T09:35:24;41.85;;;23.65;;
65420;SDS011;52028;50.658;14.004;2022-10-17T09:37:52;44.38;;;25.30;;
65420;SDS011;52028;50.658;14.004;2022-10-17T09:40:20;40.67;;;23.88;;
65420;SDS011;52028;50.658;14.004;2022-10-17T09:42:49;45.25;;;25.35;;
65420;SDS011;52028;50.658;14.004;2022-10-17T09:45:24;45.22;;;24.00;;
65420;SDS011;52028;50.658;14.004;2022-10-17T09:48:08;42.30;;;24.48;;
65420;SDS011;52028;50.658;14.004;2022-10-17T09:50:40;42.35;;;24.77;;
65420;SDS011;52028;50.658;14.004;2022-10-17T09:53:11;39.40;;;22.63;;
65420;SDS011;52028;50.658;14.004;2022-10-17T09:55:41;39.75;;;24.30;;
65420;SDS011;52028;50.658;14.004;2022-10-17T09:58:09;40.95;;;24.55;;
65420;SDS011;52028;50.658;14.004;2022-10-17T10:00:37;40.13;;;24.42;;
65420;SDS011;52028;50.658;14.004;2022-10-17T10:03:27;39.85;;;23.05;;
65420;SDS011;52028;50.658;14.004;2022-10-17T10:06:05;38.25;;;22.10;;
65420;SDS011;52028;50.658;14.004;2022-10-17T10:08:36;40.08;;;23.80;;
65420;SDS011;52028;50.658;14.004;2022-10-17T10:11:24;42.47;;;25.17;;
65420;SDS011;52028;50.658;14.004;2022-10-17T10:17:04;47.63;;;26.00;;
65420;SDS011;52028;50.658;14.004;2022-10-17T10:19:52;46.35;;;26.02;;
65420;SDS011;52028;50.658;14.004;2022-10-17T10:22:24;43.67;;;25.10;;
65420;SDS011;52028;50.658;14.004;2022-10-17T10:27:54;43.50;;;25.48;;
65420;SDS011;52028;50.658;14.004;2022-10-17T10:30:24;42.40;;;25.00;;
65420;SDS011;52028;50.658;14.004;2022-10-17T10:32:54;43.00;;;25.80;;
65420;SDS011;52028;50.658;14.004;2022-10-17T10:35:34;42.28;;;25.48;;
65420;SDS011;52028;50.658;14.004;2022-10-17T10:38:17;40.47;;;24.98;;
65420;SDS011;52028;50.658;14.004;2022-10-17T10:40:51;44.75;;;26.83;;
65420;SDS011;52028;50.658;14.004;2022-10-17T10:46:15;42.47;;;23.83;;
65420;SDS011;52028;50.658;14.004;2022-10-17T10:48:48;43.15;;;25.13;;
65420;SDS011;52028;50.658;14.004;2022-10-17T10:57:03;45.08;;;25.23;;
65420;SDS011;52028;50.658;14.004;2022-10-17T10:59:42;51.92;;;26.75;;
65420;SDS011;52028;50.658;14.004;2022-10-17T11:02:51;38.93;;;24.67;;
65420;SDS011;52028;50.658;14.004;2022-10-17T11:05:25;43.78;;;25.63;;
65420;SDS011;52028;50.658;14.004;2022-10-17T11:11:13;42.67;;;24.88;;
65420;SDS011;52028;50.658;14.004;2022-10-17T11:13:45;42.80;;;24.95;;
65420;SDS011;52028;50.658;14.004;2022-10-17T11:16:21;38.10;;;24.15;;
65420;SDS011;52028;50.658;14.004;2022-10-17T11:19:20;45.35;;;25.27;;
65420;SDS011;52028;50.658;14.004;2022-10-17T11:22:11;41.80;;;24.70;;
65420;SDS011;52028;50.658;14.004;2022-10-17T11:24:47;39.53;;;24.40;;
65420;SDS011;52028;50.658;14.004;2022-10-17T11:27:21;37.45;;;23.23;;
65420;SDS011;52028;50.658;14.004;2022-10-17T11:29:47;45.97;;;25.25;;
65420;SDS011;52028;50.658;14.004;2022-10-17T11:32:14;40.70;;;24.20;;
65420;SDS011;52028;50.658;14.004;2022-10-17T11:34:51;37.75;;;23.58;;
65420;SDS011;52028;50.658;14.004;2022-10-17T11:37:22;43.40;;;26.13;;
65420;SDS011;52028;50.658;14.004;2022-10-17T11:42:59;40.17;;;24.13;;
65420;SDS011;52028;50.658;14.004;2022-10-17T11:45:27;36.92;;;23.83;;
65420;SDS011;52028;50.658;14.004;2022-10-17T11:48:03;38.97;;;23.35;;
65420;SDS011;52028;50.658;14.004;2022-10-17T11:50:38;38.70;;;23.27;;
65420;SDS011;52028;50.658;14.004;2022-10-17T11:53:12;36.90;;;22.95;;
65420;SDS011;52028;50.658;14.004;2022-10-17T11:55:40;36.83;;;22.58;;
65420;SDS011;52028;50.658;14.004;2022-10-17T12:00:59;37.05;;;23.63;;
65420;SDS011;52028;50.658;14.004;2022-10-17T12:06:38;37.58;;;23.63;;
65420;SDS011;52028;50.658;14.004;2022-10-17T12:12:09;34.15;;;23.73;;
65420;SDS011;52028;50.658;14.004;2022-10-17T12:14:36;35.30;;;23.23;;
65420;SDS011;52028;50.658;14.004;2022-10-17T12:25:37;34.30;;;23.92;;
65420;SDS011;52028;50.658;14.004;2022-10-17T12:31:08;36.15;;;22.98;;
65420;SDS011;52028;50.658;14.004;2022-10-17T12:33:51;34.47;;;22.50;;
65420;SDS011;52028;50.658;14.004;2022-10-17T12:38:49;30.80;;;21.05;;
65420;SDS011;52028;50.658;14.004;2022-10-17T12:44:18;33.83;;;21.40;;
65420;SDS011;52028;50.658;14.004;2022-10-17T12:52:17;31.10;;;21.20;;
65420;SDS011;52028;50.658;14.004;2022-10-17T12:54:44;32.63;;;22.05;;
65420;SDS011;52028;50.658;14.004;2022-10-17T12:57:20;32.03;;;22.63;;
65420;SDS011;52028;50.658;14.004;2022-10-17T12:59:54;32.15;;;22.10;;
65420;SDS011;52028;50.658;14.004;2022-10-17T13:02:20;35.03;;;20.73;;
65420;SDS011;52028;50.658;14.004;2022-10-17T13:04:51;33.92;;;21.08;;
65420;SDS011;52028;50.658;14.004;2022-10-17T13:07:35;31.00;;;20.60;;
65420;SDS011;52028;50.658;14.004;2022-10-17T13:10:00;27.48;;;20.23;;
65420;SDS011;52028;50.658;14.004;2022-10-17T13:12:29;31.37;;;21.03;;
65420;SDS011;52028;50.658;14.004;2022-10-17T13:14:56;34.15;;;21.70;;
65420;SDS011;52028;50.658;14.004;2022-10-17T13:19:52;30.05;;;21.70;;
65420;SDS011;52028;50.658;14.004;2022-10-17T13:22:20;34.80;;;21.90;;
65420;SDS011;52028;50.658;14.004;2022-10-17T13:24:47;34.80;;;21.45;;
65420;SDS011;52028;50.658;14.004;2022-10-17T13:29:53;32.45;;;21.83;;
65420;SDS011;52028;50.658;14.004;2022-10-17T13:32:20;31.20;;;21.15;;
65420;SDS011;52028;50.658;14.004;2022-10-17T13:35:03;29.90;;;20.13;;
65420;SDS011;52028;50.658;14.004;2022-10-17T13:37:30;29.77;;;20.40;;
65420;SDS011;52028;50.658;14.004;2022-10-17T13:39:55;29.17;;;19.77;;
65420;SDS011;52028;50.658;14.004;2022-10-17T13:42:35;31.58;;;23.15;;
65420;SDS011;52028;50.658;14.004;2022-10-17T13:45:03;33.17;;;22.25;;
65420;SDS011;52028;50.658;14.004;2022-10-17T13:47:35;32.22;;;21.45;;
65420;SDS011;52028;50.658;14.004;2022-10-17T13:52:29;29.27;;;19.52;;
65420;SDS011;52028;50.658;14.004;2022-10-17T13:54:54;30.15;;;20.17;;
65420;SDS011;52028;50.658;14.004;2022-10-17T13:57:31;28.05;;;20.52;;
65420;SDS011;52028;50.658;14.004;2022-10-17T14:02:30;32.78;;;20.23;;
65420;SDS011;52028;50.658;14.004;2022-10-17T14:05:07;31.15;;;19.40;;
65420;SDS011;52028;50.658;14.004;2022-10-17T14:07:43;37.50;;;20.58;;
65420;SDS011;52028;50.658;14.004;2022-10-17T14:10:32;30.85;;;19.98;;
65420;SDS011;52028;50.658;14.004;2022-10-17T14:13:00;33.03;;;19.50;;
65420;SDS011;52028;50.658;14.004;2022-10-17T14:15:29;31.05;;;19.95;;
65420;SDS011;52028;50.658;14.004;2022-10-17T14:17:57;29.02;;;20.15;;
65420;SDS011;52028;50.658;14.004;2022-10-17T14:22:52;30.70;;;19.70;;
65420;SDS011;52028;50.658;14.004;2022-10-17T14:25:29;32.22;;;20.02;;
65420;SDS011;52028;50.658;14.004;2022-10-17T14:28:00;29.52;;;19.27;;
65420;SDS011;52028;50.658;14.004;2022-10-17T14:33:02;29.88;;;18.15;;
65420;SDS011;52028;50.658;14.004;2022-10-17T14:35:30;27.95;;;20.15;;
65420;SDS011;52028;50.658;14.004;2022-10-17T14:38:03;28.50;;;19.95;;
65420;SDS011;52028;50.658;14.004;2022-10-17T14:40:31;33.08;;;20.15;;
65420;SDS011;52028;50.658;14.004;2022-10-17T14:42:57;30.92;;;20.10;;
65420;SDS011;52028;50.658;14.004;2022-10-17T14:45:27;34.45;;;19.17;;
65420;SDS011;52028;50.658;14.004;2022-10-17T14:47:55;27.75;;;19.20;;
65420;SDS011;52028;50.658;14.004;2022-10-17T14:50:27;32.75;;;19.63;;
65420;SDS011;52028;50.658;14.004;2022-10-17T14:55:27;33.42;;;19.98;;
65420;SDS011;52028;50.658;14.004;2022-10-17T14:57:54;33.92;;;20.52;;
65420;SDS011;52028;50.658;14.004;2022-10-17T15:00:20;31.42;;;21.23;;
65420;SDS011;52028;50.658;14.004;2022-10-17T15:02:46;34.28;;;22.25;;
65420;SDS011;52028;50.658;14.004;2022-10-17T15:05:13;41.88;;;23.20;;
65420;SDS011;52028;50.658;14.004;2022-10-17T15:07:39;41.60;;;23.58;;
65420;SDS011;52028;50.658;14.004;2022-10-17T15:10:08;39.42;;;24.90;;
65420;SDS011;52028;50.658;14.004;2022-10-17T15:12:55;38.13;;;23.23;;
65420;SDS011;52028;50.658;14.004;2022-10-17T15:15:21;47.13;;;24.27;;
65420;SDS011;52028;50.658;14.004;2022-10-17T15:17:46;43.97;;;25.70;;
65420;SDS011;52028;50.658;14.004;2022-10-17T15:20:12;47.25;;;26.23;;
65420;SDS011;52028;50.658;14.004;2022-10-17T15:22:40;47.08;;;26.88;;
65420;SDS011;52028;50.658;14.004;2022-10-17T15:25:06;51.55;;;26.63;;
65420;SDS011;52028;50.658;14.004;2022-10-17T15:27:32;50.35;;;27.70;;
65420;SDS011;52028;50.658;14.004;2022-10-17T15:29:57;51.38;;;28.63;;
65420;SDS011;52028;50.658;14.004;2022-10-17T15:32:22;54.03;;;29.15;;
65420;SDS011;52028;50.658;14.004;2022-10-17T15:34:48;53.42;;;28.33;;
65420;SDS011;52028;50.658;14.004;2022-10-17T15:37:18;53.63;;;30.85;;
65420;SDS011;52028;50.658;14.004;2022-10-17T15:39:50;55.35;;;29.00;;
65420;SDS011;52028;50.658;14.004;2022-10-17T15:42:18;57.83;;;29.20;;
65420;SDS011;52028;50.658;14.004;2022-10-17T15:44:44;50.30;;;28.35;;
65420;SDS011;52028;50.658;14.004;2022-10-17T15:47:18;58.90;;;30.08;;
65420;SDS011;52028;50.658;14.004;2022-10-17T15:49:46;54.85;;;29.63;;
65420;SDS011;52028;50.658;14.004;2022-10-17T15:52:11;61.78;;;32.60;;
65420;SDS011;52028;50.658;14.004;2022-10-17T15:54:37;62.25;;;31.42;;
65420;SDS011;52028;50.658;14.004;2022-10-17T15:57:02;59.22;;;31.30;;
65420;SDS011;52028;50.658;14.004;2022-10-17T15:59:29;62.97;;;32.75;;
65420;SDS011;52028;50.658;14.004;2022-10-17T16:01:57;65.93;;;33.78;;
65420;SDS011;52028;50.658;14.004;2022-10-17T16:04:22;58.58;;;30.52;;
65420;SDS011;52028;50.658;14.004;2022-10-17T16:06:50;61.13;;;31.50;;
65420;SDS011;52028;50.658;14.004;2022-10-17T16:09:16;63.20;;;31.50;;
65420;SDS011;52028;50.658;14.004;2022-10-17T16:11:41;64.32;;;32.05;;
65420;SDS011;52028;50.658;14.004;2022-10-17T16:14:12;67.10;;;34.72;;
65420;SDS011;52028;50.658;14.004;2022-10-17T16:16:39;60.97;;;31.95;;
65420;SDS011;52028;50.658;14.004;2022-10-17T16:19:04;69.53;;;32.95;;
65420;SDS011;52028;50.658;14.004;2022-10-17T16:21:31;59.60;;;31.95;;
65420;SDS011;52028;50.658;14.004;2022-10-17T16:23:58;65.28;;;32.30;;
65420;SDS011;52028;50.658;14.004;2022-10-17T16:26:24;80.40;;;37.67;;
65420;SDS011;52028;50.658;14.004;2022-10-17T16:28:51;75.22;;;36.10;;
65420;SDS011;52028;50.658;14.004;2022-10-17T16:31:26;61.85;;;32.42;;
65420;SDS011;52028;50.658;14.004;2022-10-17T16:33:54;66.47;;;32.22;;
65420;SDS011;52028;50.658;14.004;2022-10-17T16:36:21;62.30;;;32.78;;
65420;SDS011;52028;50.658;14.004;2022-10-17T16:38:46;63.97;;;32.30;;